createdAt,value
2022-12-13T00:00:28.981Z,13.70
2022-12-13T00:03:14.415Z,13.00
2022-12-13T00:05:59.970Z,12.40
2022-12-13T00:08:45.476Z,11.60
2022-12-13T00:11:31.094Z,11.10
2022-12-13T00:14:17.096Z,10.80
2022-12-13T00:17:02.663Z,10.40
2022-12-13T00:19:48.576Z,9.80
2022-12-13T00:22:34.065Z,9.20
2022-12-13T00:25:21.456Z,8.80
2022-12-13T00:28:08.157Z,8.60
2022-12-13T00:31:04.492Z,8.60
2022-12-13T00:33:59.870Z,8.20
2022-12-13T00:36:46.696Z,8.30
2022-12-13T00:39:32.479Z,8.30
2022-12-13T00:42:17.896Z,8.20
2022-12-13T00:45:03.936Z,8.10
2022-12-13T00:47:49.315Z,7.70
2022-12-13T00:50:35.048Z,7.70
2022-12-13T00:53:20.811Z,7.60
2022-12-13T00:56:12.806Z,7.60
2022-12-13T00:58:58.909Z,7.30
2022-12-13T01:01:45.032Z,7.20
2022-12-13T01:04:30.514Z,7.30
2022-12-13T01:07:15.891Z,7.10
2022-12-13T01:10:01.595Z,7.10
2022-12-13T01:12:47.237Z,7.10
2022-12-13T01:15:33.028Z,7.20
2022-12-13T01:18:18.671Z,7.20
2022-12-13T01:21:12.861Z,7.20
2022-12-13T01:24:03.355Z,7.20
2022-12-13T01:26:48.846Z,7.20
2022-12-13T01:29:34.826Z,7.10
2022-12-13T01:32:20.500Z,7.00
2022-12-13T01:35:06.285Z,7.00
2022-12-13T01:37:51.970Z,6.80
2022-12-13T01:40:45.746Z,6.70
2022-12-13T01:43:37.655Z,6.70
2022-12-13T01:46:24.115Z,6.70
2022-12-13T01:49:20.211Z,6.70
2022-12-13T01:52:12.202Z,6.70
2022-12-13T01:55:03.158Z,6.70
2022-12-13T01:57:50.880Z,6.70
2022-12-13T02:00:36.668Z,6.60
2022-12-13T02:03:26.958Z,6.60
2022-12-13T02:06:53.448Z,6.40
2022-12-13T02:09:39.097Z,6.30
2022-12-13T02:12:30.407Z,6.20
2022-12-13T02:15:18.663Z,6.00
2022-12-13T02:18:04.171Z,5.70
2022-12-13T02:20:52.650Z,5.60
2022-12-13T02:23:46.834Z,5.70
2022-12-13T02:26:43.133Z,5.80
2022-12-13T02:30:09.654Z,5.70
2022-12-13T02:33:13.578Z,5.50
2022-12-13T02:36:24.800Z,5.50
2022-12-13T02:39:30.171Z,4.90
2022-12-13T02:42:21.370Z,5.10
2022-12-13T02:45:20.808Z,5.20
2022-12-13T02:48:09.939Z,5.20
2022-12-13T02:50:56.760Z,5.30
2022-12-13T02:53:44.852Z,5.40
2022-12-13T02:56:32.480Z,5.40
2022-12-13T02:59:18.372Z,5.30
2022-12-13T03:02:32.797Z,4.90
2022-12-13T03:06:04.166Z,4.70
2022-12-13T03:09:17.934Z,4.80
2022-12-13T03:12:49.698Z,4.90
2022-12-13T03:16:01.025Z,5.00
2022-12-13T03:18:48.896Z,5.10
2022-12-13T03:21:47.052Z,5.20
2022-12-13T03:24:33.194Z,5.40
2022-12-13T03:27:18.899Z,5.30
2022-12-13T03:30:05.134Z,5.20
2022-12-13T03:32:50.607Z,5.20
2022-12-13T03:35:44.407Z,5.00
2022-12-13T03:38:31.126Z,4.90
2022-12-13T03:41:20.454Z,4.90
2022-12-13T03:44:08.566Z,4.90
2022-12-13T03:46:54.387Z,4.70
2022-12-13T03:49:39.918Z,4.80
2022-12-13T03:52:25.351Z,4.70
2022-12-13T03:55:11.110Z,4.70
2022-12-13T03:57:56.921Z,4.70
2022-12-13T04:00:42.373Z,4.60
2022-12-13T04:03:28.081Z,4.60
2022-12-13T04:06:21.692Z,4.60
2022-12-13T04:09:09.058Z,4.40
2022-12-13T04:12:12.996Z,4.50
2022-12-13T04:14:58.608Z,4.50
2022-12-13T04:17:44.063Z,4.50
2022-12-13T04:20:37.138Z,4.50
2022-12-13T04:23:23.030Z,4.60
2022-12-13T04:26:08.403Z,4.60
2022-12-13T04:28:54.815Z,4.70
2022-12-13T04:31:40.482Z,4.70
2022-12-13T04:34:26.495Z,4.70
2022-12-13T04:37:11.935Z,4.70
2022-12-13T04:40:00.453Z,4.70
2022-12-13T04:42:46.688Z,4.70
2022-12-13T04:45:39.967Z,4.70
2022-12-13T04:48:30.805Z,4.70
2022-12-13T04:51:17.375Z,4.60
2022-12-13T04:54:24.497Z,4.60
2022-12-13T04:57:11.277Z,4.50
2022-12-13T04:59:56.816Z,4.40
2022-12-13T05:02:42.614Z,4.30
2022-12-13T05:05:28.314Z,4.30
2022-12-13T05:08:13.918Z,4.50
2022-12-13T05:10:59.705Z,4.30
2022-12-13T05:13:45.251Z,4.20
2022-12-13T05:16:30.613Z,4.20
2022-12-13T05:19:16.036Z,4.10
2022-12-13T05:22:02.210Z,4.10
2022-12-13T05:24:48.709Z,4.10
2022-12-13T05:27:34.535Z,4.00
2022-12-13T05:30:20.382Z,3.90
2022-12-13T05:33:06.117Z,3.80
2022-12-13T05:35:56.210Z,3.60
2022-12-13T05:38:45.004Z,3.50
2022-12-13T05:41:34.021Z,3.30
2022-12-13T05:44:20.771Z,3.40
2022-12-13T05:47:06.382Z,3.30
2022-12-13T05:49:52.208Z,3.20
2022-12-13T05:52:37.661Z,3.20
2022-12-13T05:55:23.248Z,3.10
2022-12-13T05:58:13.281Z,3.00
2022-12-13T06:01:11.358Z,3.10
2022-12-13T06:03:57.262Z,2.90
2022-12-13T06:06:42.855Z,3.10
2022-12-13T06:09:28.469Z,2.80
2022-12-13T06:12:31.251Z,3.20
2022-12-13T06:15:21.800Z,4.00
2022-12-13T06:18:09.213Z,5.00
2022-12-13T06:20:59.438Z,5.90
2022-12-13T06:23:45.000Z,6.70
2022-12-13T06:26:30.546Z,7.40
2022-12-13T06:29:23.415Z,7.90
2022-12-13T06:32:11.067Z,8.40
2022-12-13T06:34:56.965Z,8.80
2022-12-13T06:37:42.398Z,9.30
2022-12-13T06:40:27.986Z,9.60
2022-12-13T06:43:13.506Z,9.90
2022-12-13T06:45:59.168Z,10.10
2022-12-13T06:48:45.067Z,10.30
2022-12-13T06:51:33.282Z,10.50
2022-12-13T06:54:21.915Z,10.50
2022-12-13T06:57:07.586Z,10.60
2022-12-13T06:59:53.204Z,10.60
2022-12-13T07:02:38.839Z,10.70
2022-12-13T07:05:25.219Z,10.70
2022-12-13T07:08:10.920Z,10.80
2022-12-13T07:10:56.750Z,10.80
2022-12-13T07:13:43.210Z,10.80
2022-12-13T07:16:29.018Z,10.80
2022-12-13T07:19:23.793Z,10.80
2022-12-13T07:22:10.060Z,10.80
2022-12-13T07:24:55.368Z,10.90
2022-12-13T07:27:40.849Z,11.00
2022-12-13T07:30:29.670Z,11.00
2022-12-13T07:33:22.616Z,11.10
2022-12-13T07:36:19.738Z,11.10
2022-12-13T07:39:05.652Z,11.20
2022-12-13T07:41:54.374Z,11.20
2022-12-13T07:44:40.842Z,11.20
2022-12-13T07:47:30.571Z,11.20
2022-12-13T07:50:24.628Z,11.20
2022-12-13T07:53:11.467Z,11.20
2022-12-13T07:55:57.575Z,11.20
2022-12-13T07:58:44.105Z,11.30
2022-12-13T08:01:32.392Z,11.30
2022-12-13T08:04:18.223Z,11.40
2022-12-13T08:07:07.259Z,11.40
2022-12-13T08:09:53.458Z,11.40
2022-12-13T08:12:39.048Z,11.50
2022-12-13T08:15:25.715Z,11.50
2022-12-13T08:18:11.584Z,11.50
2022-12-13T08:20:59.577Z,11.60
2022-12-13T08:23:45.322Z,12.40
2022-12-13T08:26:31.067Z,12.40
2022-12-13T08:29:22.312Z,12.40
2022-12-13T08:32:12.878Z,12.40
2022-12-13T08:34:58.580Z,12.30
2022-12-13T08:37:43.962Z,12.20
2022-12-13T08:40:29.668Z,12.20
2022-12-13T08:43:14.956Z,12.20
2022-12-13T08:46:01.296Z,12.30
2022-12-13T08:48:47.167Z,12.40
2022-12-13T08:51:35.500Z,12.30
2022-12-13T08:54:31.429Z,12.30
2022-12-13T08:57:17.913Z,12.40
2022-12-13T09:00:11.518Z,12.40
2022-12-13T09:02:58.432Z,12.40
2022-12-13T09:05:44.469Z,12.40
2022-12-13T09:08:35.176Z,12.40
2022-12-13T09:11:34.660Z,12.40
2022-12-13T09:14:47.897Z,12.40
2022-12-13T09:17:37.262Z,12.50
2022-12-13T09:20:29.549Z,12.50
2022-12-13T09:23:24.269Z,12.60
2022-12-13T09:26:16.047Z,12.60
2022-12-13T09:29:10.956Z,12.70
2022-12-13T09:31:57.928Z,12.70
2022-12-13T09:34:45.759Z,12.80
2022-12-13T09:37:32.192Z,12.80
2022-12-13T09:40:25.973Z,12.90
2022-12-13T09:43:31.763Z,13.00
2022-12-13T09:46:44.259Z,13.00
2022-12-13T09:49:36.985Z,13.10
2022-12-13T09:52:24.840Z,13.20
2022-12-13T09:55:41.912Z,13.20
2022-12-13T09:58:31.805Z,13.30
2022-12-13T10:01:23.475Z,13.30
2022-12-13T10:04:15.699Z,13.30
2022-12-13T10:07:02.042Z,13.40
2022-12-13T10:09:48.092Z,13.40
2022-12-13T10:12:35.608Z,13.60
2022-12-13T10:15:25.075Z,13.70
2022-12-13T10:18:15.019Z,13.90
2022-12-13T10:21:04.474Z,14.10
2022-12-13T10:24:23.237Z,14.20
2022-12-13T10:26:58.858Z,14.30
2022-12-13T10:30:12.494Z,14.40
2022-12-13T10:33:01.850Z,14.40
2022-12-13T10:36:26.594Z,14.50
2022-12-13T10:39:38.680Z,14.60
2022-12-13T10:42:30.525Z,14.70
2022-12-13T10:45:23.676Z,14.70
2022-12-13T10:48:39.607Z,14.80
2022-12-13T10:51:25.263Z,14.80
2022-12-13T10:54:25.683Z,14.80
2022-12-13T10:57:11.938Z,14.80
2022-12-13T10:59:58.027Z,14.60
2022-12-13T11:02:54.639Z,14.60
2022-12-13T11:05:40.789Z,14.50
2022-12-13T11:08:29.696Z,14.50
2022-12-13T11:11:18.651Z,14.60
2022-12-13T11:14:04.267Z,14.70
2022-12-13T11:17:10.535Z,14.80
2022-12-13T11:20:03.801Z,15.00
2022-12-13T11:22:50.411Z,15.30
2022-12-13T11:25:45.189Z,15.30
2022-12-13T11:28:48.835Z,15.50
2022-12-13T11:31:53.968Z,15.70
2022-12-13T11:35:07.755Z,15.80
2022-12-13T11:38:17.382Z,16.00
2022-12-13T11:41:32.316Z,16.10
2022-12-13T11:44:46.070Z,14.70
2022-12-13T11:47:58.348Z,16.30
2022-12-13T11:50:50.546Z,16.30
2022-12-13T11:53:52.004Z,16.40
2022-12-13T11:56:42.850Z,16.40
2022-12-13T11:59:40.463Z,16.40
2022-12-13T12:02:26.552Z,16.50
2022-12-13T12:05:36.847Z,16.60
2022-12-13T12:08:37.312Z,16.60
2022-12-13T12:11:47.398Z,16.70
2022-12-13T12:14:41.236Z,16.70
2022-12-13T12:17:26.822Z,16.80
2022-12-13T12:20:23.876Z,16.80
2022-12-13T12:23:32.203Z,16.80
2022-12-13T12:26:21.392Z,16.90
2022-12-13T12:29:33.955Z,16.90
2022-12-13T12:32:25.567Z,16.90
2022-12-13T12:35:39.229Z,17.00
2022-12-13T12:38:34.770Z,17.00
2022-12-13T12:41:28.913Z,17.00
2022-12-13T12:44:23.274Z,17.10
2022-12-13T12:48:29.662Z,17.10
2022-12-13T12:51:04.910Z,17.00
2022-12-13T12:53:59.292Z,17.00
2022-12-13T12:56:53.864Z,16.90
2022-12-13T12:59:42.130Z,16.80
2022-12-13T13:02:30.703Z,16.70
2022-12-13T13:05:16.601Z,16.70
2022-12-13T13:08:18.178Z,16.60
2022-12-13T13:11:06.016Z,16.50
2022-12-13T13:14:29.957Z,16.50
2022-12-13T13:17:24.735Z,16.40
2022-12-13T13:20:27.556Z,16.40
2022-12-13T13:23:39.944Z,16.40
2022-12-13T13:26:35.978Z,16.30
2022-12-13T13:29:27.731Z,16.30
2022-12-13T13:32:29.469Z,16.20
2022-12-13T13:35:31.770Z,16.20
2022-12-13T13:38:23.549Z,16.10
2022-12-13T13:41:41.040Z,16.10
2022-12-13T13:44:35.066Z,16.00
2022-12-13T13:47:20.538Z,16.00
2022-12-13T13:50:11.999Z,16.00
2022-12-13T13:53:04.819Z,16.00
2022-12-13T13:56:17.890Z,16.00
2022-12-13T13:59:15.629Z,16.00
2022-12-13T14:02:38.831Z,16.00
2022-12-13T14:06:01.968Z,16.00
2022-12-13T14:08:59.275Z,16.00
2022-12-13T14:12:09.135Z,16.00
2022-12-13T14:15:21.989Z,16.00
2022-12-13T14:18:28.919Z,16.00
2022-12-13T14:21:17.340Z,16.00
2022-12-13T14:24:22.589Z,16.00
2022-12-13T14:27:37.142Z,16.00
2022-12-13T14:30:27.832Z,16.10
2022-12-13T14:33:23.061Z,16.00
2022-12-13T14:36:18.393Z,16.00
2022-12-13T14:39:25.170Z,16.00
2022-12-13T14:42:37.602Z,16.00
2022-12-13T14:45:27.743Z,16.00
2022-12-13T14:48:16.133Z,16.00
2022-12-13T14:51:35.084Z,16.00
2022-12-13T14:54:26.143Z,15.90
2022-12-13T14:57:21.524Z,15.90
2022-12-13T15:00:30.255Z,15.90
2022-12-13T15:03:25.260Z,15.90
2022-12-13T15:06:12.123Z,15.80
2022-12-13T15:08:57.722Z,15.90
2022-12-13T15:11:45.154Z,15.80
2022-12-13T15:14:30.851Z,15.80
2022-12-13T15:17:45.202Z,15.80
2022-12-13T15:20:41.813Z,15.80
2022-12-13T15:23:49.213Z,15.80
2022-12-13T15:26:48.387Z,15.80
2022-12-13T15:29:35.617Z,15.80
2022-12-13T15:32:23.307Z,16.00
2022-12-13T15:35:16.913Z,16.20
2022-12-13T15:38:03.700Z,16.40
2022-12-13T15:40:50.043Z,16.50
2022-12-13T15:43:45.371Z,16.50
2022-12-13T15:46:33.158Z,16.50
2022-12-13T15:49:39.178Z,16.60
2022-12-13T15:52:31.479Z,16.70
2022-12-13T15:55:19.404Z,16.70
2022-12-13T15:58:25.670Z,16.60
2022-12-13T16:01:32.670Z,16.60
2022-12-13T16:04:32.900Z,16.70
2022-12-13T16:07:26.205Z,16.60
2022-12-13T16:10:18.750Z,16.50
2022-12-13T16:13:07.859Z,16.50
2022-12-13T16:16:00.242Z,16.40
2022-12-13T16:18:57.588Z,16.30
2022-12-13T16:21:43.252Z,16.20
2022-12-13T16:24:28.644Z,16.10
2022-12-13T16:27:14.475Z,16.00
2022-12-13T16:30:00.389Z,16.00
2022-12-13T16:33:17.512Z,16.00
2022-12-13T16:35:52.208Z,16.00
2022-12-13T16:38:38.486Z,16.00
2022-12-13T16:41:25.008Z,16.00
2022-12-13T16:44:23.695Z,16.00
2022-12-13T16:47:20.546Z,16.00
2022-12-13T16:50:15.149Z,15.90
2022-12-13T16:53:00.860Z,15.90
2022-12-13T16:55:58.352Z,15.90
2022-12-13T16:58:49.905Z,15.80
2022-12-13T17:01:36.783Z,15.80
2022-12-13T17:04:24.070Z,15.90
2022-12-13T17:07:09.825Z,16.00
2022-12-13T17:09:55.392Z,16.00
2022-12-13T17:12:40.898Z,16.00
2022-12-13T17:15:26.331Z,16.00
2022-12-13T17:18:12.990Z,16.00
2022-12-13T17:21:05.852Z,16.00
2022-12-13T17:23:59.967Z,16.00
2022-12-13T17:26:53.819Z,16.00
2022-12-13T17:29:40.650Z,15.90
2022-12-13T17:32:26.051Z,15.80
2022-12-13T17:35:17.814Z,15.80
2022-12-13T17:38:05.160Z,15.70
2022-12-13T17:40:54.830Z,15.70
2022-12-13T17:43:42.223Z,15.70
2022-12-13T17:46:28.629Z,15.60
2022-12-13T17:49:14.194Z,15.60
2022-12-13T17:51:59.551Z,15.70
2022-12-13T17:54:45.234Z,15.70
2022-12-13T17:57:34.649Z,15.70
2022-12-13T18:00:20.540Z,15.70
2022-12-13T18:03:06.213Z,15.60
2022-12-13T18:05:59.531Z,15.50
2022-12-13T18:08:45.711Z,15.50
2022-12-13T18:11:33.284Z,15.50
2022-12-13T18:14:20.023Z,15.40
2022-12-13T18:17:06.707Z,15.40
2022-12-13T18:19:52.442Z,15.40
2022-12-13T18:22:41.844Z,15.40
2022-12-13T18:25:29.875Z,15.40
2022-12-13T18:28:15.586Z,15.30
2022-12-13T18:31:14.212Z,15.40
2022-12-13T18:33:59.746Z,15.30
2022-12-13T18:36:45.506Z,15.30
2022-12-13T18:39:31.591Z,15.30
2022-12-13T18:42:17.097Z,15.30
2022-12-13T18:45:04.043Z,15.30
2022-12-13T18:47:50.051Z,15.30
2022-12-13T18:50:36.108Z,15.30
2022-12-13T18:53:21.942Z,15.30
2022-12-13T18:56:16.075Z,15.30
2022-12-13T18:59:03.488Z,15.30
2022-12-13T19:01:49.164Z,15.30
2022-12-13T19:04:35.810Z,15.30
2022-12-13T19:07:21.662Z,15.30
2022-12-13T19:10:07.401Z,15.30
2022-12-13T19:12:53.419Z,15.30
2022-12-13T19:15:40.506Z,15.20
2022-12-13T19:18:27.497Z,15.20
2022-12-13T19:21:16.573Z,15.20
2022-12-13T19:24:02.520Z,15.20
2022-12-13T19:26:48.315Z,15.20
2022-12-13T19:29:34.175Z,15.20
2022-12-13T19:32:19.919Z,15.20
2022-12-13T19:35:05.748Z,15.20
2022-12-13T19:37:51.848Z,15.20
2022-12-13T19:40:43.696Z,15.10
2022-12-13T19:43:29.829Z,15.20
2022-12-13T19:46:15.501Z,15.10
2022-12-13T19:49:01.177Z,15.10
2022-12-13T19:51:46.568Z,15.10
2022-12-13T19:54:32.226Z,15.10
2022-12-13T19:57:18.528Z,15.10
2022-12-13T20:00:05.515Z,15.10
2022-12-13T20:02:51.716Z,15.10
2022-12-13T20:05:38.454Z,15.10
2022-12-13T20:08:23.962Z,15.20
2022-12-13T20:11:13.229Z,15.10
2022-12-13T20:13:58.944Z,15.10
2022-12-13T20:16:44.780Z,15.10
2022-12-13T20:19:30.685Z,15.10
2022-12-13T20:22:16.180Z,15.00
2022-12-13T20:25:01.787Z,15.10
2022-12-13T20:27:47.928Z,15.10
2022-12-13T20:30:33.984Z,15.10
2022-12-13T20:33:19.946Z,15.10
2022-12-13T20:36:25.040Z,15.00
2022-12-13T20:39:13.551Z,15.10
2022-12-13T20:41:59.004Z,15.10
2022-12-13T20:44:45.023Z,15.00
2022-12-13T20:47:33.878Z,15.10
2022-12-13T20:50:23.260Z,15.00
2022-12-13T20:53:08.938Z,15.10
2022-12-13T20:56:00.854Z,15.10
2022-12-13T20:58:46.523Z,15.10
2022-12-13T21:01:35.139Z,15.10
2022-12-13T21:04:21.140Z,15.10
2022-12-13T21:07:07.036Z,15.10
2022-12-13T21:09:52.627Z,15.10
2022-12-13T21:12:38.361Z,15.00
2022-12-13T21:15:49.947Z,15.00
2022-12-13T21:18:35.933Z,15.10
2022-12-13T21:21:22.079Z,14.90
2022-12-13T21:24:08.349Z,14.90
2022-12-13T21:26:56.485Z,14.90
2022-12-13T21:29:42.301Z,14.80
2022-12-13T21:32:27.869Z,14.70
2022-12-13T21:35:13.486Z,14.80
2022-12-13T21:38:04.994Z,14.80
2022-12-13T21:40:50.978Z,14.70
2022-12-13T21:43:38.030Z,14.70
2022-12-13T21:46:47.517Z,14.70
2022-12-13T21:49:32.224Z,14.70
2022-12-13T21:52:17.749Z,14.60
2022-12-13T21:55:30.403Z,14.60
2022-12-13T21:58:28.569Z,14.70
2022-12-13T22:01:14.875Z,14.60
2022-12-13T22:04:05.362Z,14.50
2022-12-13T22:06:52.255Z,14.50
2022-12-13T22:09:38.046Z,14.50
2022-12-13T22:12:32.672Z,14.50
2022-12-13T22:15:18.376Z,14.50
2022-12-13T22:18:03.916Z,14.40
2022-12-13T22:20:59.474Z,14.40
2022-12-13T22:23:45.133Z,14.40
2022-12-13T22:26:30.783Z,14.40
2022-12-13T22:29:16.645Z,14.40
2022-12-13T22:32:02.764Z,14.40
2022-12-13T22:34:48.806Z,14.30
2022-12-13T22:37:34.407Z,14.30
2022-12-13T22:40:20.356Z,14.30
2022-12-13T22:43:05.742Z,14.30
2022-12-13T22:45:51.324Z,14.30
2022-12-13T22:48:38.323Z,14.30
2022-12-13T22:51:23.626Z,14.30
2022-12-13T22:54:09.524Z,14.20
2022-12-13T22:56:55.290Z,14.20
2022-12-13T22:59:40.803Z,14.20
2022-12-13T23:02:26.353Z,14.20
2022-12-13T23:05:11.784Z,14.20
2022-12-13T23:07:57.390Z,14.20
2022-12-13T23:11:01.181Z,14.20
2022-12-13T23:13:50.956Z,14.10
2022-12-13T23:16:36.895Z,14.10
2022-12-13T23:22:28.490Z,14.10
2022-12-13T23:25:13.928Z,14.10
2022-12-13T23:27:59.404Z,14.10
2022-12-13T23:30:44.934Z,14.00
2022-12-13T23:33:30.326Z,14.10
2022-12-13T23:36:19.276Z,14.00
2022-12-13T23:39:06.602Z,14.00
2022-12-13T23:41:52.127Z,14.00
2022-12-13T23:44:37.661Z,14.00
2022-12-13T23:47:23.247Z,14.00
2022-12-13T23:50:09.107Z,14.00
2022-12-13T23:52:54.428Z,14.00
2022-12-13T23:55:39.887Z,14.00
2022-12-13T23:58:26.245Z,14.00
